sensor_id;sensor_type;location;lat;lon;timestamp;pressure;altitude;pressure_sealevel;temperature;humidity
14295;BME280;7231;59.370;18.016;2023-02-12T00:01:54;102594.31;;;-2.94;91.99
14295;BME280;7231;59.370;18.016;2023-02-12T00:04:22;102583.88;;;-2.96;91.68
14295;BME280;7231;59.370;18.016;2023-02-12T00:06:50;102581.63;;;-2.92;92.01
14295;BME280;7231;59.370;18.016;2023-02-12T00:09:19;102592.66;;;-2.93;92.02
14295;BME280;7231;59.370;18.016;2023-02-12T00:11:47;102555.47;;;-3.13;91.68
14295;BME280;7231;59.370;18.016;2023-02-12T00:14:15;102573.28;;;-2.99;91.98
14295;BME280;7231;59.370;18.016;2023-02-12T00:16:43;102577.66;;;-2.98;91.58
14295;BME280;7231;59.370;18.016;2023-02-12T00:19:11;102573.44;;;-2.97;92.16
14295;BME280;7231;59.370;18.016;2023-02-12T00:21:39;102571.44;;;-3.00;91.75
14295;BME280;7231;59.370;18.016;2023-02-12T00:24:07;102544.13;;;-3.15;91.94
14295;BME280;7231;59.370;18.016;2023-02-12T00:26:36;102562.50;;;-3.03;92.31
14295;BME280;7231;59.370;18.016;2023-02-12T00:29:04;102564.31;;;-3.02;91.87
14295;BME280;7231;59.370;18.016;2023-02-12T00:31:32;102548.44;;;-3.07;92.07
14295;BME280;7231;59.370;18.016;2023-02-12T00:34:00;102549.59;;;-2.96;92.41
14295;BME280;7231;59.370;18.016;2023-02-12T00:36:30;102547.19;;;-2.95;91.98
14295;BME280;7231;59.370;18.016;2023-02-12T00:38:59;102531.13;;;-3.01;91.60
14295;BME280;7231;59.370;18.016;2023-02-12T00:41:27;102540.75;;;-2.91;92.07
14295;BME280;7231;59.370;18.016;2023-02-12T00:43:56;102544.22;;;-2.90;91.85
14295;BME280;7231;59.370;18.016;2023-02-12T00:46:24;102532.22;;;-2.99;91.74
14295;BME280;7231;59.370;18.016;2023-02-12T00:48:52;102536.53;;;-2.90;91.51
14295;BME280;7231;59.370;18.016;2023-02-12T00:51:20;102353.34;;;-3.94;91.64
14295;BME280;7231;59.370;18.016;2023-02-12T00:53:48;102550.19;;;-2.83;91.46
14295;BME280;7231;59.370;18.016;2023-02-12T00:56:16;102518.38;;;-2.92;91.45
14295;BME280;7231;59.370;18.016;2023-02-12T00:58:44;102511.34;;;-3.02;91.45
14295;BME280;7231;59.370;18.016;2023-02-12T01:01:13;102558.06;;;-2.81;91.29
14295;BME280;7231;59.370;18.016;2023-02-12T01:03:41;102552.16;;;-2.80;91.00
14295;BME280;7231;59.370;18.016;2023-02-12T01:06:09;102548.59;;;-2.89;90.88
14295;BME280;7231;59.370;18.016;2023-02-12T01:08:37;102549.59;;;-2.80;91.33
14295;BME280;7231;59.370;18.016;2023-02-12T01:11:05;102551.44;;;-2.79;91.14
14295;BME280;7231;59.370;18.016;2023-02-12T01:13:34;102544.88;;;-2.84;90.91
14295;BME280;7231;59.370;18.016;2023-02-12T01:16:06;102537.50;;;-2.81;90.88
14295;BME280;7231;59.370;18.016;2023-02-12T01:18:38;102542.72;;;-2.73;90.79
14295;BME280;7231;59.370;18.016;2023-02-12T01:21:10;102542.41;;;-2.76;90.74
14295;BME280;7231;59.370;18.016;2023-02-12T01:23:38;102546.53;;;-2.69;90.42
14295;BME280;7231;59.370;18.016;2023-02-12T01:26:06;102553.66;;;-2.67;90.65
14295;BME280;7231;59.370;18.016;2023-02-12T01:28:36;102555.66;;;-2.64;90.67
14295;BME280;7231;59.370;18.016;2023-02-12T01:31:09;102549.59;;;-2.65;90.77
14295;BME280;7231;59.370;18.016;2023-02-12T01:33:39;102548.72;;;-2.56;90.33
14295;BME280;7231;59.370;18.016;2023-02-12T01:36:08;102551.03;;;-2.51;90.07
14295;BME280;7231;59.370;18.016;2023-02-12T01:38:36;102560.75;;;-2.48;90.28
14295;BME280;7231;59.370;18.016;2023-02-12T01:41:06;102490.22;;;-2.83;89.78
14295;BME280;7231;59.370;18.016;2023-02-12T01:43:35;102561.97;;;-2.45;90.11
14295;BME280;7231;59.370;18.016;2023-02-12T01:46:04;102560.47;;;-2.43;90.11
14295;BME280;7231;59.370;18.016;2023-02-12T01:48:34;102562.31;;;-2.42;89.52
14295;BME280;7231;59.370;18.016;2023-02-12T01:51:06;102556.41;;;-2.41;89.62
14295;BME280;7231;59.370;18.016;2023-02-12T01:53:39;102524.41;;;-2.60;89.71
14295;BME280;7231;59.370;18.016;2023-02-12T01:56:09;102501.22;;;-2.69;89.41
14295;BME280;7231;59.370;18.016;2023-02-12T01:58:40;102557.50;;;-2.39;89.28
14295;BME280;7231;59.370;18.016;2023-02-12T02:01:12;102503.53;;;-2.63;89.47
14295;BME280;7231;59.370;18.016;2023-02-12T02:03:44;102536.94;;;-2.39;89.28
14295;BME280;7231;59.370;18.016;2023-02-12T02:06:18;102544.50;;;-2.40;89.23
14295;BME280;7231;59.370;18.016;2023-02-12T02:08:47;102543.56;;;-2.41;89.33
14295;BME280;7231;59.370;18.016;2023-02-12T02:11:15;102534.06;;;-2.42;89.07
14295;BME280;7231;59.370;18.016;2023-02-12T02:14:01;102523.44;;;-2.45;89.31
14295;BME280;7231;59.370;18.016;2023-02-12T02:16:48;102522.53;;;-2.45;89.38
14295;BME280;7231;59.370;18.016;2023-02-12T02:19:27;102523.13;;;-2.48;88.70
14295;BME280;7231;59.370;18.016;2023-02-12T02:25:21;102542.59;;;-2.50;88.88
14295;BME280;7231;59.370;18.016;2023-02-12T02:28:04;102521.13;;;-2.50;88.93
14295;BME280;7231;59.370;18.016;2023-02-12T02:30:43;102518.41;;;-2.52;88.72
14295;BME280;7231;59.370;18.016;2023-02-12T02:33:26;102511.44;;;-2.53;89.06
14295;BME280;7231;59.370;18.016;2023-02-12T02:36:13;102461.16;;;-2.75;88.84
14295;BME280;7231;59.370;18.016;2023-02-12T02:38:48;102495.94;;;-2.46;89.06
14295;BME280;7231;59.370;18.016;2023-02-12T02:41:19;102498.84;;;-2.43;88.84
14295;BME280;7231;59.370;18.016;2023-02-12T02:43:52;102498.84;;;-2.43;89.09
14295;BME280;7231;59.370;18.016;2023-02-12T02:46:26;102502.47;;;-2.41;89.07
14295;BME280;7231;59.370;18.016;2023-02-12T02:48:59;102504.63;;;-2.37;89.19
14295;BME280;7231;59.370;18.016;2023-02-12T02:51:32;102481.44;;;-2.45;88.67
14295;BME280;7231;59.370;18.016;2023-02-12T02:54:04;102488.47;;;-2.36;88.38
14295;BME280;7231;59.370;18.016;2023-02-12T02:56:37;102484.22;;;-2.35;88.68
14295;BME280;7231;59.370;18.016;2023-02-12T02:59:09;102515.03;;;-2.19;88.55
14295;BME280;7231;59.370;18.016;2023-02-12T03:01:42;102499.94;;;-2.16;88.24
14295;BME280;7231;59.370;18.016;2023-02-12T03:04:14;102501.91;;;-2.14;88.54
14295;BME280;7231;59.370;18.016;2023-02-12T03:06:58;102491.47;;;-2.15;87.76
14295;BME280;7231;59.370;18.016;2023-02-12T03:09:31;102492.44;;;-2.06;87.75
14295;BME280;7231;59.370;18.016;2023-02-12T03:12:05;102482.47;;;-2.03;87.54
14295;BME280;7231;59.370;18.016;2023-02-12T03:14:37;102496.72;;;-1.98;87.81
14295;BME280;7231;59.370;18.016;2023-02-12T03:17:11;102486.91;;;-1.93;87.42
14295;BME280;7231;59.370;18.016;2023-02-12T03:19:44;102493.44;;;-1.88;87.22
14295;BME280;7231;59.370;18.016;2023-02-12T03:22:15;102491.34;;;-1.84;87.02
14295;BME280;7231;59.370;18.016;2023-02-12T03:24:47;102457.72;;;-1.94;86.79
14295;BME280;7231;59.370;18.016;2023-02-12T03:27:20;102480.19;;;-1.76;86.83
14295;BME280;7231;59.370;18.016;2023-02-12T03:29:51;102479.31;;;-1.68;86.55
14295;BME280;7231;59.370;18.016;2023-02-12T03:32:28;102469.66;;;-1.61;86.55
14295;BME280;7231;59.370;18.016;2023-02-12T03:35:08;102424.06;;;-1.80;86.13
14295;BME280;7231;59.370;18.016;2023-02-12T03:37:39;102426.38;;;-1.66;86.79
14295;BME280;7231;59.370;18.016;2023-02-12T03:40:14;102454.56;;;-1.50;86.49
14295;BME280;7231;59.370;18.016;2023-02-12T03:42:49;102452.44;;;-1.45;86.83
14295;BME280;7231;59.370;18.016;2023-02-12T03:45:24;102464.56;;;-1.44;86.56
14295;BME280;7231;59.370;18.016;2023-02-12T03:48:00;102462.44;;;-1.40;86.53
14295;BME280;7231;59.370;18.016;2023-02-12T03:50:35;102461.84;;;-1.37;86.34
14295;BME280;7231;59.370;18.016;2023-02-12T03:53:06;102456.41;;;-1.40;86.38
14295;BME280;7231;59.370;18.016;2023-02-12T03:55:36;102457.78;;;-1.35;86.64
14295;BME280;7231;59.370;18.016;2023-02-12T03:58:08;102456.09;;;-1.35;86.40
14295;BME280;7231;59.370;18.016;2023-02-12T04:00:37;102446.72;;;-1.34;86.17
14295;BME280;7231;59.370;18.016;2023-02-12T04:03:08;102423.72;;;-1.33;86.47
14295;BME280;7231;59.370;18.016;2023-02-12T04:05:36;102421.31;;;-1.31;86.22
14295;BME280;7231;59.370;18.016;2023-02-12T04:08:06;102424.78;;;-1.31;86.15
14295;BME280;7231;59.370;18.016;2023-02-12T04:10:41;102421.00;;;-1.25;86.41
14295;BME280;7231;59.370;18.016;2023-02-12T04:13:18;102417.97;;;-1.21;86.35
14295;BME280;7231;59.370;18.016;2023-02-12T04:16:02;102421.31;;;-1.14;85.75
14295;BME280;7231;59.370;18.016;2023-02-12T04:18:39;102415.56;;;-1.11;85.78
14295;BME280;7231;59.370;18.016;2023-02-12T04:21:12;102419.22;;;-1.09;85.43
14295;BME280;7231;59.370;18.016;2023-02-12T04:23:49;102408.44;;;-1.14;85.58
14295;BME280;7231;59.370;18.016;2023-02-12T04:26:26;102408.44;;;-1.14;85.53
14295;BME280;7231;59.370;18.016;2023-02-12T04:29:09;102418.91;;;-1.04;85.73
14295;BME280;7231;59.370;18.016;2023-02-12T04:31:45;102424.06;;;-1.04;85.78
14295;BME280;7231;59.370;18.016;2023-02-12T04:34:23;102425.88;;;-1.03;85.81
14295;BME280;7231;59.370;18.016;2023-02-12T04:36:57;102419.50;;;-0.98;85.89
14295;BME280;7231;59.370;18.016;2023-02-12T04:39:27;102404.06;;;-1.06;85.51
14295;BME280;7231;59.370;18.016;2023-02-12T04:41:57;102423.16;;;-0.95;85.72
14295;BME280;7231;59.370;18.016;2023-02-12T04:44:27;102420.56;;;-0.95;85.78
14295;BME280;7231;59.370;18.016;2023-02-12T04:46:56;102423.44;;;-0.92;85.96
14295;BME280;7231;59.370;18.016;2023-02-12T04:49:26;102386.50;;;-1.10;85.73
14295;BME280;7231;59.370;18.016;2023-02-12T04:51:54;102420.28;;;-0.90;85.73
14295;BME280;7231;59.370;18.016;2023-02-12T04:54:22;102416.78;;;-0.90;85.72
14295;BME280;7231;59.370;18.016;2023-02-12T04:56:50;102401.19;;;-1.01;85.35
14295;BME280;7231;59.370;18.016;2023-02-12T04:59:18;102405.56;;;-0.91;85.88
14295;BME280;7231;59.370;18.016;2023-02-12T05:01:46;102393.47;;;-0.92;85.83
14295;BME280;7231;59.370;18.016;2023-02-12T05:04:15;102400.28;;;-0.92;85.97
14295;BME280;7231;59.370;18.016;2023-02-12T05:06:45;102394.38;;;-0.91;85.98
14295;BME280;7231;59.370;18.016;2023-02-12T05:09:15;102384.97;;;-0.91;85.56
14295;BME280;7231;59.370;18.016;2023-02-12T05:11:44;102383.31;;;-0.90;86.08
14295;BME280;7231;59.370;18.016;2023-02-12T05:14:12;102372.09;;;-0.91;86.11
14295;BME280;7231;59.370;18.016;2023-02-12T05:16:40;102374.69;;;-0.91;86.18
14295;BME280;7231;59.370;18.016;2023-02-12T05:19:08;102368.94;;;-0.88;86.13
14295;BME280;7231;59.370;18.016;2023-02-12T05:21:37;102371.50;;;-0.88;86.08
14295;BME280;7231;59.370;18.016;2023-02-12T05:24:06;102338.34;;;-1.03;86.00
14295;BME280;7231;59.370;18.016;2023-02-12T05:26:35;102357.72;;;-0.89;86.27
14295;BME280;7231;59.370;18.016;2023-02-12T05:29:03;102333.50;;;-1.00;86.23
14295;BME280;7231;59.370;18.016;2023-02-12T05:31:31;102295.81;;;-1.16;86.47
14295;BME280;7231;59.370;18.016;2023-02-12T05:33:59;102353.16;;;-0.83;86.46
14295;BME280;7231;59.370;18.016;2023-02-12T05:36:27;102338.63;;;-0.82;86.40
14295;BME280;7231;59.370;18.016;2023-02-12T05:38:57;102321.06;;;-0.86;86.29
14295;BME280;7231;59.370;18.016;2023-02-12T05:41:27;102329.38;;;-0.80;86.53
14295;BME280;7231;59.370;18.016;2023-02-12T05:44:00;102314.09;;;-0.87;86.48
14295;BME280;7231;59.370;18.016;2023-02-12T05:46:28;102255.69;;;-1.23;86.59
14295;BME280;7231;59.370;18.016;2023-02-12T05:48:56;102322.41;;;-0.81;86.59
14295;BME280;7231;59.370;18.016;2023-02-12T05:51:25;102310.59;;;-0.88;86.71
14295;BME280;7231;59.370;18.016;2023-02-12T05:53:57;102312.09;;;-0.81;86.70
14295;BME280;7231;59.370;18.016;2023-02-12T05:56:28;102319.06;;;-0.80;86.63
14295;BME280;7231;59.370;18.016;2023-02-12T05:58:58;102315.75;;;-0.79;86.80
14295;BME280;7231;59.370;18.016;2023-02-12T06:01:29;102321.94;;;-0.77;87.00
14295;BME280;7231;59.370;18.016;2023-02-12T06:03:57;102313.47;;;-0.76;86.79
14295;BME280;7231;59.370;18.016;2023-02-12T06:06:26;102327.09;;;-0.77;86.85
14295;BME280;7231;59.370;18.016;2023-02-12T06:08:54;102306.97;;;-0.90;86.80
14295;BME280;7231;59.370;18.016;2023-02-12T06:11:22;102334.81;;;-0.77;87.27
14295;BME280;7231;59.370;18.016;2023-02-12T06:13:52;102333.91;;;-0.78;87.27
14295;BME280;7231;59.370;18.016;2023-02-12T06:16:22;102303.19;;;-0.93;87.37
14295;BME280;7231;59.370;18.016;2023-02-12T06:18:50;102328.91;;;-0.76;87.59
14295;BME280;7231;59.370;18.016;2023-02-12T06:21:20;102328.16;;;-0.75;87.77
14295;BME280;7231;59.370;18.016;2023-02-12T06:23:49;102298.66;;;-0.87;87.63
14295;BME280;7231;59.370;18.016;2023-02-12T06:26:17;102286.84;;;-0.94;87.78
14295;BME280;7231;59.370;18.016;2023-02-12T06:28:45;102314.97;;;-0.78;88.09
14295;BME280;7231;59.370;18.016;2023-02-12T06:31:19;102330.13;;;-0.73;88.07
14295;BME280;7231;59.370;18.016;2023-02-12T06:33:48;102320.72;;;-0.72;88.36
14295;BME280;7231;59.370;18.016;2023-02-12T06:36:17;102279.25;;;-0.92;88.44
14295;BME280;7231;59.370;18.016;2023-02-12T06:38:45;102280.63;;;-0.96;88.60
14295;BME280;7231;59.370;18.016;2023-02-12T06:41:14;102321.63;;;-0.72;88.61
14295;BME280;7231;59.370;18.016;2023-02-12T06:43:42;102299.22;;;-0.81;88.41
14295;BME280;7231;59.370;18.016;2023-02-12T06:46:10;102291.22;;;-0.84;88.62
14295;BME280;7231;59.370;18.016;2023-02-12T06:48:40;102317.09;;;-0.74;88.77
14295;BME280;7231;59.370;18.016;2023-02-12T06:51:10;102311.03;;;-0.75;88.58
14295;BME280;7231;59.370;18.016;2023-02-12T06:53:38;102306.63;;;-0.76;88.87
14295;BME280;7231;59.370;18.016;2023-02-12T06:56:08;102315.28;;;-0.75;88.79
14295;BME280;7231;59.370;18.016;2023-02-12T06:58:37;102318.91;;;-0.73;89.02
14295;BME280;7231;59.370;18.016;2023-02-12T07:01:07;102306.34;;;-0.79;88.96
14295;BME280;7231;59.370;18.016;2023-02-12T07:03:40;102309.38;;;-0.74;89.15
14295;BME280;7231;59.370;18.016;2023-02-12T07:06:08;102308.16;;;-0.78;88.92
14295;BME280;7231;59.370;18.016;2023-02-12T07:08:37;102305.28;;;-0.72;88.78
14295;BME280;7231;59.370;18.016;2023-02-12T07:11:05;102281.66;;;-0.85;89.16
14295;BME280;7231;59.370;18.016;2023-02-12T07:13:33;102296.78;;;-0.71;89.50
14295;BME280;7231;59.370;18.016;2023-02-12T07:16:06;102292.69;;;-0.69;89.67
14295;BME280;7231;59.370;18.016;2023-02-12T07:18:35;102286.78;;;-0.68;89.39
14295;BME280;7231;59.370;18.016;2023-02-12T07:21:06;102199.97;;;-1.14;89.74
14295;BME280;7231;59.370;18.016;2023-02-12T07:23:35;102268.75;;;-0.68;89.75
14295;BME280;7231;59.370;18.016;2023-02-12T07:26:05;102261.66;;;-0.79;89.73
14295;BME280;7231;59.370;18.016;2023-02-12T07:28:34;102283.41;;;-0.58;89.78
14295;BME280;7231;59.370;18.016;2023-02-12T07:31:05;102288.84;;;-0.55;90.09
14295;BME280;7231;59.370;18.016;2023-02-12T07:33:34;102293.25;;;-0.54;90.01
14295;BME280;7231;59.370;18.016;2023-02-12T07:36:06;102293.38;;;-0.53;90.16
14295;BME280;7231;59.370;18.016;2023-02-12T07:38:34;102280.97;;;-0.57;89.87
14295;BME280;7231;59.370;18.016;2023-02-12T07:41:07;102299.75;;;-0.49;90.25
14295;BME280;7231;59.370;18.016;2023-02-12T07:43:36;102286.41;;;-0.54;90.29
14295;BME280;7231;59.370;18.016;2023-02-12T07:46:06;102298.22;;;-0.47;90.23
14295;BME280;7231;59.370;18.016;2023-02-12T07:48:34;102292.16;;;-0.48;90.49
14295;BME280;7231;59.370;18.016;2023-02-12T07:51:06;102282.47;;;-0.50;90.56
14295;BME280;7231;59.370;18.016;2023-02-12T07:53:35;102285.78;;;-0.43;90.58
14295;BME280;7231;59.370;18.016;2023-02-12T07:56:05;102282.72;;;-0.39;90.59
14295;BME280;7231;59.370;18.016;2023-02-12T07:58:33;102278.66;;;-0.45;90.65
14295;BME280;7231;59.370;18.016;2023-02-12T08:01:10;102289.97;;;-0.35;90.75
14295;BME280;7231;59.370;18.016;2023-02-12T08:03:38;102272.09;;;-0.33;90.65
14295;BME280;7231;59.370;18.016;2023-02-12T08:06:10;102264.50;;;-0.31;90.95
14295;BME280;7231;59.370;18.016;2023-02-12T08:08:38;102252.38;;;-0.32;91.27
14295;BME280;7231;59.370;18.016;2023-02-12T08:11:08;102180.69;;;-0.64;90.73
14295;BME280;7231;59.370;18.016;2023-02-12T08:13:37;102255.63;;;-0.16;91.43
14295;BME280;7231;59.370;18.016;2023-02-12T08:16:07;102196.34;;;-0.44;91.47
14295;BME280;7231;59.370;18.016;2023-02-12T08:18:35;102242.41;;;-0.11;91.45
14295;BME280;7231;59.370;18.016;2023-02-12T08:21:04;102233.13;;;-0.09;91.47
14295;BME280;7231;59.370;18.016;2023-02-12T08:23:34;102082.06;;;-0.90;91.33
14295;BME280;7231;59.370;18.016;2023-02-12T08:26:07;102195.41;;;-0.17;91.60
14295;BME280;7231;59.370;18.016;2023-02-12T08:28:36;102218.56;;;-0.08;91.52
14295;BME280;7231;59.370;18.016;2023-02-12T08:31:06;102207.47;;;-0.07;91.83
14295;BME280;7231;59.370;18.016;2023-02-12T08:33:34;102223.91;;;0.04;91.72
14295;BME280;7231;59.370;18.016;2023-02-12T08:36:04;102217.22;;;0.06;92.00
14295;BME280;7231;59.370;18.016;2023-02-12T08:38:35;102213.25;;;0.09;91.97
14295;BME280;7231;59.370;18.016;2023-02-12T08:41:04;102216.88;;;0.11;91.81
14295;BME280;7231;59.370;18.016;2023-02-12T08:43:33;102196.09;;;0.10;92.18
14295;BME280;7231;59.370;18.016;2023-02-12T08:46:02;102204.69;;;0.19;92.38
14295;BME280;7231;59.370;18.016;2023-02-12T08:48:31;102207.69;;;0.23;92.32
14295;BME280;7231;59.370;18.016;2023-02-12T08:51:04;102154.00;;;0.00;92.26
14295;BME280;7231;59.370;18.016;2023-02-12T08:53:35;102210.03;;;0.30;92.67
14295;BME280;7231;59.370;18.016;2023-02-12T08:56:04;102213.66;;;0.32;92.65
14295;BME280;7231;59.370;18.016;2023-02-12T08:58:32;102207.75;;;0.33;92.35
14295;BME280;7231;59.370;18.016;2023-02-12T09:01:01;102231.53;;;0.40;92.86
14295;BME280;7231;59.370;18.016;2023-02-12T09:03:28;102236.97;;;0.43;92.46
14295;BME280;7231;59.370;18.016;2023-02-12T09:05:56;102239.81;;;0.46;93.09
14295;BME280;7231;59.370;18.016;2023-02-12T09:08:24;102234.84;;;0.57;92.93
14295;BME280;7231;59.370;18.016;2023-02-12T09:10:54;102241.47;;;0.64;93.04
14295;BME280;7231;59.370;18.016;2023-02-12T09:13:21;102233.38;;;0.70;92.82
14295;BME280;7231;59.370;18.016;2023-02-12T09:15:50;102234.81;;;0.76;93.25
14295;BME280;7231;59.370;18.016;2023-02-12T09:18:18;102240.66;;;0.84;93.89
14295;BME280;7231;59.370;18.016;2023-02-12T09:20:45;102239.94;;;0.95;93.44
14295;BME280;7231;59.370;18.016;2023-02-12T09:23:14;102213.19;;;0.84;93.40
14295;BME280;7231;59.370;18.016;2023-02-12T09:25:43;102209.31;;;0.89;93.21
14295;BME280;7231;59.370;18.016;2023-02-12T09:28:13;102235.22;;;1.10;94.00
14295;BME280;7231;59.370;18.016;2023-02-12T09:30:41;102222.84;;;1.16;93.66
14295;BME280;7231;59.370;18.016;2023-02-12T09:33:10;102215.78;;;1.23;93.64
14295;BME280;7231;59.370;18.016;2023-02-12T09:35:38;102140.88;;;0.84;93.60
14295;BME280;7231;59.370;18.016;2023-02-12T09:38:07;102215.41;;;1.29;93.34
14295;BME280;7231;59.370;18.016;2023-02-12T09:40:42;102178.16;;;1.17;93.55
14295;BME280;7231;59.370;18.016;2023-02-12T09:43:17;102208.94;;;1.34;93.44
14295;BME280;7231;59.370;18.016;2023-02-12T09:45:50;102201.56;;;1.28;93.27
14295;BME280;7231;59.370;18.016;2023-02-12T09:48:35;102182.03;;;1.22;93.68
14295;BME280;7231;59.370;18.016;2023-02-12T09:51:07;102166.69;;;1.23;93.87
14295;BME280;7231;59.370;18.016;2023-02-12T09:53:39;102006.91;;;0.38;93.72
14295;BME280;7231;59.370;18.016;2023-02-12T09:56:12;102186.47;;;1.43;93.75
14295;BME280;7231;59.370;18.016;2023-02-12T09:58:45;102156.75;;;1.38;94.23
14295;BME280;7231;59.370;18.016;2023-02-12T10:01:16;102159.34;;;1.58;93.39
14295;BME280;7231;59.370;18.016;2023-02-12T10:03:45;102157.03;;;1.72;94.65
14295;BME280;7231;59.370;18.016;2023-02-12T10:06:16;102150.56;;;1.77;94.20
14295;BME280;7231;59.370;18.016;2023-02-12T10:08:56;102153.16;;;1.87;94.35
14295;BME280;7231;59.370;18.016;2023-02-12T10:11:42;102149.66;;;1.97;94.04
14295;BME280;7231;59.370;18.016;2023-02-12T10:14:25;102152.63;;;2.01;93.32
14295;BME280;7231;59.370;18.016;2023-02-12T10:17:00;102088.66;;;1.68;93.33
14295;BME280;7231;59.370;18.016;2023-02-12T10:19:52;102150.66;;;2.09;92.32
14295;BME280;7231;59.370;18.016;2023-02-12T10:22:32;102128.44;;;2.01;92.40
14295;BME280;7231;59.370;18.016;2023-02-12T10:25:25;102128.66;;;2.14;92.83
14295;BME280;7231;59.370;18.016;2023-02-12T10:27:56;102150.22;;;2.35;92.58
14295;BME280;7231;59.370;18.016;2023-02-12T10:30:39;102150.72;;;2.41;92.92
14295;BME280;7231;59.370;18.016;2023-02-12T10:33:12;102151.22;;;2.47;92.16
14295;BME280;7231;59.370;18.016;2023-02-12T10:35:47;102131.94;;;2.43;92.37
14295;BME280;7231;59.370;18.016;2023-02-12T10:38:19;102131.00;;;2.53;91.91
14295;BME280;7231;59.370;18.016;2023-02-12T10:40:48;102134.00;;;2.69;92.33
14295;BME280;7231;59.370;18.016;2023-02-12T10:43:17;102141.97;;;2.82;91.82
14295;BME280;7231;59.370;18.016;2023-02-12T10:45:46;102140.41;;;2.84;92.04
14295;BME280;7231;59.370;18.016;2023-02-12T10:48:19;102128.59;;;2.88;92.32
14295;BME280;7231;59.370;18.016;2023-02-12T10:50:54;102125.09;;;2.87;91.93
14295;BME280;7231;59.370;18.016;2023-02-12T10:53:31;102121.00;;;2.79;91.42
14295;BME280;7231;59.370;18.016;2023-02-12T10:56:14;102110.16;;;2.73;91.58
14295;BME280;7231;59.370;18.016;2023-02-12T10:58:52;102125.66;;;2.83;91.15
14295;BME280;7231;59.370;18.016;2023-02-12T11:01:25;102127.69;;;2.87;91.29
14295;BME280;7231;59.370;18.016;2023-02-12T11:03:55;102120.22;;;2.80;90.70
14295;BME280;7231;59.370;18.016;2023-02-12T11:06:25;102083.06;;;2.58;90.83
14295;BME280;7231;59.370;18.016;2023-02-12T11:08:55;102101.13;;;2.68;90.84
14295;BME280;7231;59.370;18.016;2023-02-12T11:11:26;102107.81;;;2.76;90.92
14295;BME280;7231;59.370;18.016;2023-02-12T11:13:57;102106.31;;;2.90;91.05
14295;BME280;7231;59.370;18.016;2023-02-12T11:16:30;102109.25;;;2.94;90.80
14295;BME280;7231;59.370;18.016;2023-02-12T11:19:00;102106.06;;;3.09;91.56
14295;BME280;7231;59.370;18.016;2023-02-12T11:21:30;102102.97;;;3.24;91.00
14295;BME280;7231;59.370;18.016;2023-02-12T11:24:20;102092.50;;;3.23;91.27
14295;BME280;7231;59.370;18.016;2023-02-12T11:26:48;102090.69;;;3.22;90.33
14295;BME280;7231;59.370;18.016;2023-02-12T11:29:18;102101.41;;;3.26;90.37
14295;BME280;7231;59.370;18.016;2023-02-12T11:31:59;102106.94;;;3.31;90.49
14295;BME280;7231;59.370;18.016;2023-02-12T11:34:27;102099.41;;;3.34;90.71
14295;BME280;7231;59.370;18.016;2023-02-12T11:36:57;102091.28;;;3.30;90.67
14295;BME280;7231;59.370;18.016;2023-02-12T11:39:27;102086.28;;;3.21;90.49
14295;BME280;7231;59.370;18.016;2023-02-12T11:41:58;102098.38;;;3.32;90.12
14295;BME280;7231;59.370;18.016;2023-02-12T11:44:29;102095.00;;;3.33;90.27
14295;BME280;7231;59.370;18.016;2023-02-12T11:47:02;102090.41;;;3.41;90.39
14295;BME280;7231;59.370;18.016;2023-02-12T11:49:37;102088.59;;;3.40;90.45
14295;BME280;7231;59.370;18.016;2023-02-12T11:52:17;102074.16;;;3.32;90.34
14295;BME280;7231;59.370;18.016;2023-02-12T11:54:47;102071.59;;;3.43;90.28
14295;BME280;7231;59.370;18.016;2023-02-12T11:57:34;102076.09;;;3.46;90.39
14295;BME280;7231;59.370;18.016;2023-02-12T12:00:03;102078.94;;;3.49;90.45
14295;BME280;7231;59.370;18.016;2023-02-12T12:02:36;102076.00;;;3.56;90.43
14295;BME280;7231;59.370;18.016;2023-02-12T12:05:09;102053.22;;;3.52;90.25
14295;BME280;7231;59.370;18.016;2023-02-12T12:07:42;102063.63;;;3.64;90.08
14295;BME280;7231;59.370;18.016;2023-02-12T12:10:16;102069.28;;;3.70;89.98
14295;BME280;7231;59.370;18.016;2023-02-12T12:12:50;102070.63;;;3.76;89.93
14295;BME280;7231;59.370;18.016;2023-02-12T12:15:22;102075.03;;;3.77;89.57
14295;BME280;7231;59.370;18.016;2023-02-12T12:18:18;102072.56;;;3.79;89.40
14295;BME280;7231;59.370;18.016;2023-02-12T12:21:12;102068.72;;;3.85;89.33
14295;BME280;7231;59.370;18.016;2023-02-12T12:23:45;102053.03;;;3.84;89.20
14295;BME280;7231;59.370;18.016;2023-02-12T12:26:21;102068.72;;;3.85;89.09
14295;BME280;7231;59.370;18.016;2023-02-12T12:28:56;102073.34;;;3.78;88.83
14295;BME280;7231;59.370;18.016;2023-02-12T12:31:29;102083.03;;;3.69;89.27
14295;BME280;7231;59.370;18.016;2023-02-12T12:34:06;101903.88;;;2.74;88.83
14295;BME280;7231;59.370;18.016;2023-02-12T12:36:56;102092.97;;;3.74;88.90
14295;BME280;7231;59.370;18.016;2023-02-12T12:39:34;102070.06;;;3.69;89.20
14295;BME280;7231;59.370;18.016;2023-02-12T12:42:26;102070.63;;;3.76;88.59
14295;BME280;7231;59.370;18.016;2023-02-12T12:45:09;102033.16;;;3.49;89.02
14295;BME280;7231;59.370;18.016;2023-02-12T12:47:54;102075.94;;;3.78;89.36
14295;BME280;7231;59.370;18.016;2023-02-12T12:50:41;102069.16;;;3.80;88.96
14295;BME280;7231;59.370;18.016;2023-02-12T12:53:23;102000.00;;;3.45;89.15
14295;BME280;7231;59.370;18.016;2023-02-12T12:56:12;102045.47;;;3.75;89.35
14295;BME280;7231;59.370;18.016;2023-02-12T12:59:07;102070.97;;;3.81;89.07
14295;BME280;7231;59.370;18.016;2023-02-12T13:02:04;102008.25;;;3.51;89.33
14295;BME280;7231;59.370;18.016;2023-02-12T13:04:54;102053.50;;;3.78;89.58
14295;BME280;7231;59.370;18.016;2023-02-12T13:07:48;102046.84;;;3.70;89.32
14295;BME280;7231;59.370;18.016;2023-02-12T13:10:29;102055.50;;;3.71;89.66
14295;BME280;7231;59.370;18.016;2023-02-12T13:13:08;102063.97;;;3.80;89.71
14295;BME280;7231;59.370;18.016;2023-02-12T13:15:45;102069.97;;;3.79;89.62
14295;BME280;7231;59.370;18.016;2023-02-12T13:18:26;102013.28;;;3.38;89.63
14295;BME280;7231;59.370;18.016;2023-02-12T13:21:05;102064.31;;;3.73;89.82
14295;BME280;7231;59.370;18.016;2023-02-12T13:23:41;102054.50;;;3.69;89.92